createdAt,value
2017-12-04T00:01:19.901Z,4.10
2017-12-04T00:03:48.678Z,3.50
2017-12-04T00:06:17.812Z,3.80
2017-12-04T00:08:46.152Z,3.17
2017-12-04T00:11:15.269Z,4.23
2017-12-04T00:13:43.629Z,4.13
2017-12-04T00:16:12.728Z,4.20
2017-12-04T00:18:41.856Z,3.93
2017-12-04T00:21:09.536Z,3.90
2017-12-04T00:23:37.893Z,4.00
2017-12-04T00:26:06.244Z,5.90
2017-12-04T00:28:35.348Z,5.13
2017-12-04T00:31:03.700Z,5.13
2017-12-04T00:33:32.813Z,2.27
2017-12-04T00:36:01.917Z,4.20
2017-12-04T00:38:30.269Z,4.63
2017-12-04T00:40:59.364Z,5.17
2017-12-04T00:43:28.508Z,4.57
2017-12-04T00:45:56.878Z,5.90
2017-12-04T00:48:25.251Z,6.00
2017-12-04T00:50:53.633Z,6.10
2017-12-04T00:53:21.979Z,4.90
2017-12-04T00:55:51.135Z,6.10
2017-12-04T00:58:19.683Z,4.67
2017-12-04T01:00:47.737Z,6.23
2017-12-04T01:03:16.675Z,5.93
2017-12-04T01:05:44.927Z,5.87
2017-12-04T01:08:13.089Z,5.93
2017-12-04T01:10:41.274Z,7.80
2017-12-04T01:13:09.608Z,3.63
2017-12-04T01:15:38.741Z,4.93
2017-12-04T01:18:07.096Z,5.80
2017-12-04T01:20:36.218Z,4.40
2017-12-04T01:23:04.555Z,5.40
2017-12-04T01:25:32.902Z,4.73
2017-12-04T01:28:01.259Z,3.53
2017-12-04T01:30:29.660Z,6.07
2017-12-04T01:32:58.020Z,7.27
2017-12-04T01:35:26.373Z,6.97
2017-12-04T01:37:54.748Z,5.63
2017-12-04T01:40:22.785Z,8.60
2017-12-04T01:42:51.135Z,5.93
2017-12-04T01:45:19.517Z,6.77
2017-12-04T01:47:47.536Z,7.00
2017-12-04T01:50:16.644Z,6.40
2017-12-04T01:52:45.000Z,5.40
2017-12-04T01:55:14.113Z,8.23
2017-12-04T01:57:42.143Z,7.90
2017-12-04T02:00:10.491Z,8.07
2017-12-04T02:02:38.510Z,6.57
2017-12-04T02:05:07.646Z,6.73
2017-12-04T02:07:35.659Z,7.13
2017-12-04T02:10:03.351Z,4.57
2017-12-04T02:12:31.511Z,5.77
2017-12-04T02:15:00.620Z,5.50
2017-12-04T02:17:28.977Z,4.17
2017-12-04T02:19:57.751Z,4.10
2017-12-04T02:22:25.467Z,4.90
2017-12-04T02:24:53.500Z,4.87
2017-12-04T02:27:22.280Z,5.17
2017-12-04T02:29:50.742Z,5.37
2017-12-04T02:32:18.759Z,5.83
2017-12-04T02:34:47.136Z,4.50
2017-12-04T02:37:15.484Z,4.60
2017-12-04T02:39:43.865Z,6.53
2017-12-04T02:42:12.325Z,4.97
2017-12-04T02:44:40.012Z,5.27
2017-12-04T02:47:08.514Z,3.70
2017-12-04T02:49:36.191Z,4.07
2017-12-04T02:52:04.203Z,5.23
2017-12-04T02:54:31.889Z,5.73
2017-12-04T02:57:00.675Z,5.07
2017-12-04T02:59:29.485Z,5.50
2017-12-04T03:01:57.829Z,4.70
2017-12-04T03:04:26.183Z,5.77
2017-12-04T03:06:54.537Z,4.70
2017-12-04T03:09:22.880Z,3.37
2017-12-04T03:11:52.009Z,4.30
2017-12-04T03:14:20.362Z,7.20
2017-12-04T03:16:48.037Z,5.67
2017-12-04T03:19:16.062Z,4.63
2017-12-04T03:21:43.732Z,5.90
2017-12-04T03:24:12.195Z,3.80
2017-12-04T03:26:39.880Z,3.77
2017-12-04T03:29:08.988Z,5.30
2017-12-04T03:31:37.010Z,4.33
2017-12-04T03:34:05.030Z,4.33
2017-12-04T03:36:33.628Z,4.50
2017-12-04T03:39:01.647Z,3.90
2017-12-04T03:41:29.771Z,4.87
2017-12-04T03:43:58.128Z,4.80
2017-12-04T03:46:27.041Z,4.90
2017-12-04T03:48:55.404Z,6.17
2017-12-04T03:51:23.573Z,4.00
2017-12-04T03:53:51.922Z,6.40
2017-12-04T03:56:20.294Z,5.67
2017-12-04T03:58:49.430Z,4.63
2017-12-04T04:01:17.805Z,5.67
2017-12-04T04:03:46.912Z,5.00
2017-12-04T04:06:15.267Z,6.07
2017-12-04T04:08:44.389Z,5.00
2017-12-04T04:11:12.730Z,5.67
2017-12-04T04:13:41.868Z,5.23
2017-12-04T04:16:10.216Z,5.07
2017-12-04T04:18:39.328Z,6.33
2017-12-04T04:21:07.721Z,6.13
2017-12-04T04:23:36.073Z,5.90
2017-12-04T04:26:04.428Z,5.80
2017-12-04T04:28:33.353Z,5.20
2017-12-04T04:31:01.701Z,6.13
2017-12-04T04:33:30.057Z,5.20
2017-12-04T04:35:58.410Z,3.57
2017-12-04T04:38:26.764Z,7.13
2017-12-04T04:40:54.781Z,6.73
2017-12-04T04:43:23.119Z,7.07
2017-12-04T04:45:51.499Z,7.43
2017-12-04T04:48:19.508Z,6.50
2017-12-04T04:50:47.190Z,7.73
2017-12-04T04:53:15.465Z,5.83
2017-12-04T04:55:44.587Z,6.63
2017-12-04T05:00:47.692Z,7.03
2017-12-04T05:03:16.040Z,6.63
2017-12-04T05:05:44.056Z,8.00
2017-12-04T05:08:11.767Z,7.00
2017-12-04T05:10:40.109Z,6.57
2017-12-04T05:13:08.272Z,8.03
2017-12-04T05:15:36.639Z,8.57
2017-12-04T05:18:04.987Z,7.60
2017-12-04T05:20:33.907Z,6.43
2017-12-04T05:23:02.096Z,8.40
2017-12-04T05:25:30.445Z,8.47
2017-12-04T05:27:58.801Z,7.63
2017-12-04T05:30:27.600Z,8.63
2017-12-04T05:32:56.714Z,7.03
2017-12-04T05:35:25.073Z,8.43
2017-12-04T05:37:54.301Z,6.33
2017-12-04T05:40:22.632Z,5.27
2017-12-04T05:42:50.973Z,6.87
2017-12-04T05:45:19.157Z,6.73
2017-12-04T05:47:47.497Z,8.20
2017-12-04T05:50:15.840Z,7.90
2017-12-04T05:52:44.991Z,7.50
2017-12-04T05:55:13.339Z,7.00
2017-12-04T05:57:41.689Z,4.00
2017-12-04T06:00:09.739Z,5.83
2017-12-04T06:02:38.089Z,7.43
2017-12-04T06:05:06.441Z,8.23
2017-12-04T06:07:34.804Z,7.57
2017-12-04T06:10:03.959Z,8.40
2017-12-04T06:12:33.080Z,7.37
2017-12-04T06:15:01.472Z,6.70
2017-12-04T06:17:31.261Z,6.93
2017-12-04T06:19:59.605Z,4.87
2017-12-04T06:22:27.782Z,7.83
2017-12-04T06:24:56.133Z,6.83
2017-12-04T06:27:24.477Z,6.40
2017-12-04T06:29:52.841Z,5.17
2017-12-04T06:32:21.186Z,4.47
2017-12-04T06:34:49.966Z,5.93
2017-12-04T06:37:18.331Z,5.60
2017-12-04T06:39:48.559Z,5.60
2017-12-04T06:42:16.722Z,4.20
2017-12-04T06:44:44.905Z,3.60
2017-12-04T06:47:13.130Z,5.03
2017-12-04T06:49:41.481Z,5.70
2017-12-04T06:52:09.845Z,5.13
2017-12-04T06:54:38.185Z,5.60
2017-12-04T06:57:07.300Z,4.83
2017-12-04T06:59:35.700Z,4.27
2017-12-04T07:02:04.112Z,4.20
2017-12-04T07:04:32.487Z,5.50
2017-12-04T07:07:00.892Z,4.30
2017-12-04T07:09:30.013Z,4.23
2017-12-04T07:11:58.393Z,4.50
2017-12-04T07:14:26.761Z,4.13
2017-12-04T07:16:55.140Z,3.47
2017-12-04T07:19:23.493Z,5.27
2017-12-04T07:21:51.858Z,4.60
2017-12-04T07:24:20.207Z,5.40
2017-12-04T07:26:48.549Z,2.80
2017-12-04T07:29:16.926Z,4.90
2017-12-04T07:31:46.041Z,3.53
2017-12-04T07:34:14.396Z,4.37
2017-12-04T07:36:43.545Z,4.27
2017-12-04T07:39:11.904Z,5.10
2017-12-04T07:41:40.254Z,5.07
2017-12-04T07:44:08.635Z,5.00
2017-12-04T07:46:39.603Z,5.87
2017-12-04T07:49:07.959Z,4.70
2017-12-04T07:51:36.524Z,5.80
2017-12-04T07:54:05.637Z,5.87
2017-12-04T07:56:34.014Z,6.07
2017-12-04T07:59:02.361Z,5.30
2017-12-04T08:01:31.537Z,6.33
2017-12-04T08:04:00.084Z,5.50
2017-12-04T08:06:28.449Z,5.93
2017-12-04T08:08:56.839Z,5.30
2017-12-04T08:11:25.249Z,6.27
2017-12-04T08:13:53.659Z,5.60
2017-12-04T08:16:22.020Z,6.40
2017-12-04T08:18:50.388Z,7.20
2017-12-04T08:21:18.546Z,7.07
2017-12-04T08:23:46.741Z,5.53
2017-12-04T08:26:15.125Z,6.10
2017-12-04T08:28:43.465Z,7.00
2017-12-04T08:31:12.659Z,6.37
2017-12-04T08:33:41.096Z,7.10
2017-12-04T08:36:10.270Z,6.93
2017-12-04T08:38:39.420Z,6.90
2017-12-04T08:41:07.817Z,5.87
2017-12-04T08:43:36.216Z,6.53
2017-12-04T08:46:04.604Z,6.40
2017-12-04T08:48:32.976Z,6.13
2017-12-04T08:51:01.337Z,5.30
2017-12-04T08:53:30.509Z,7.33
2017-12-04T08:55:58.946Z,5.83
2017-12-04T08:58:28.146Z,7.03
2017-12-04T09:00:56.965Z,7.07
2017-12-04T09:03:25.362Z,6.90
2017-12-04T09:05:53.720Z,6.97
2017-12-04T09:08:22.077Z,6.93
2017-12-04T09:10:51.393Z,5.87
2017-12-04T09:13:19.821Z,8.30
2017-12-04T09:15:48.206Z,7.47
2017-12-04T09:18:17.406Z,6.80
2017-12-04T09:20:46.565Z,7.63
2017-12-04T09:23:14.903Z,7.43
2017-12-04T09:25:43.747Z,6.53
2017-12-04T09:28:12.236Z,7.90
2017-12-04T09:30:39.998Z,6.10
2017-12-04T09:33:07.740Z,9.23
2017-12-04T09:35:35.801Z,6.67
2017-12-04T09:38:03.810Z,7.77
2017-12-04T09:40:31.865Z,6.43
2017-12-04T09:43:00.299Z,7.73
2017-12-04T09:45:28.391Z,7.33
2017-12-04T09:47:56.857Z,6.73
2017-12-04T09:50:24.993Z,8.10
2017-12-04T09:52:54.120Z,9.37
2017-12-04T09:55:22.527Z,9.97
2017-12-04T09:57:51.813Z,8.43
2017-12-04T10:00:19.497Z,8.80
2017-12-04T10:02:47.937Z,8.20
2017-12-04T10:05:15.974Z,8.37
2017-12-04T10:07:45.169Z,9.67
2017-12-04T10:10:14.374Z,9.47
2017-12-04T10:12:43.185Z,11.97
2017-12-04T10:15:12.318Z,8.43
2017-12-04T10:17:40.674Z,12.10
2017-12-04T10:20:09.017Z,9.67
2017-12-04T10:22:37.580Z,10.57
2017-12-04T10:25:05.989Z,10.30
2017-12-04T10:27:35.089Z,9.27
2017-12-04T10:30:03.881Z,10.10
2017-12-04T10:32:33.033Z,10.70
2017-12-04T10:35:01.399Z,9.30
2017-12-04T10:37:30.110Z,10.00
2017-12-04T10:39:58.497Z,12.80
2017-12-04T10:42:26.697Z,10.33
2017-12-04T10:44:54.876Z,10.53
2017-12-04T10:47:23.236Z,10.90
2017-12-04T10:49:52.200Z,9.20
2017-12-04T10:52:20.554Z,11.20
2017-12-04T10:54:48.904Z,10.60
2017-12-04T10:57:17.080Z,11.83
2017-12-04T10:59:45.241Z,10.53
2017-12-04T11:02:13.456Z,10.57
2017-12-04T11:04:41.620Z,12.20
2017-12-04T11:07:09.973Z,11.37
2017-12-04T11:09:38.149Z,11.00
2017-12-04T11:12:06.173Z,13.20
2017-12-04T11:14:34.574Z,12.63
2017-12-04T11:17:03.688Z,13.50
2017-12-04T11:19:32.053Z,12.00
2017-12-04T11:22:00.527Z,12.33
2017-12-04T11:24:29.137Z,12.50
2017-12-04T11:26:57.309Z,13.77
2017-12-04T11:29:25.484Z,12.60
2017-12-04T11:31:53.837Z,10.80
2017-12-04T11:34:22.307Z,13.90
2017-12-04T11:36:50.325Z,13.60
2017-12-04T11:39:18.669Z,13.20
2017-12-04T11:41:47.855Z,13.57
2017-12-04T11:44:16.650Z,12.70
2017-12-04T11:46:45.886Z,13.43
2017-12-04T11:49:14.760Z,13.10
2017-12-04T11:51:43.151Z,13.40
2017-12-04T11:54:11.199Z,13.70
2017-12-04T11:56:39.602Z,12.50
2017-12-04T11:59:07.654Z,13.93
2017-12-04T12:01:36.037Z,10.93
2017-12-04T12:04:04.388Z,12.90
2017-12-04T12:06:34.036Z,13.53
2017-12-04T12:09:02.407Z,14.27
2017-12-04T12:11:30.770Z,13.93
2017-12-04T12:13:59.209Z,13.20
2017-12-04T12:16:27.563Z,10.67
2017-12-04T12:18:55.938Z,13.40
2017-12-04T12:21:24.314Z,17.83
2017-12-04T12:23:52.689Z,12.60
2017-12-04T12:26:21.051Z,11.57
2017-12-04T12:28:49.409Z,12.60
2017-12-04T12:31:17.785Z,11.40
2017-12-04T12:33:46.909Z,12.10
2017-12-04T12:36:15.278Z,13.43
2017-12-04T12:38:43.633Z,13.30
2017-12-04T12:41:12.757Z,13.07
2017-12-04T12:43:41.133Z,12.00
2017-12-04T12:46:09.479Z,12.97
2017-12-04T12:48:38.625Z,12.80
2017-12-04T12:51:06.982Z,12.47
2017-12-04T12:53:35.332Z,12.80
2017-12-04T12:56:04.503Z,12.80
2017-12-04T12:58:32.884Z,11.60
2017-12-04T13:01:01.273Z,11.80
2017-12-04T13:03:29.619Z,11.47
2017-12-04T13:05:57.976Z,11.70
2017-12-04T13:08:27.120Z,11.40
2017-12-04T13:10:55.609Z,11.30
2017-12-04T13:13:23.975Z,9.57
2017-12-04T13:15:52.335Z,12.50
2017-12-04T13:18:20.687Z,9.70
2017-12-04T13:20:49.045Z,11.70
2017-12-04T13:23:17.393Z,9.63
2017-12-04T13:25:46.553Z,7.73
2017-12-04T13:28:14.903Z,9.57
2017-12-04T13:30:43.057Z,9.30
2017-12-04T13:33:23.405Z,10.97
2017-12-04T13:36:03.702Z,10.17
2017-12-04T13:38:32.055Z,10.13
2017-12-04T13:41:00.409Z,9.70
2017-12-04T13:43:28.777Z,10.60
2017-12-04T13:45:56.936Z,12.23
2017-12-04T13:48:25.108Z,10.10
2017-12-04T13:50:53.297Z,10.37
2017-12-04T13:53:21.457Z,10.30
2017-12-04T13:55:49.649Z,11.00
2017-12-04T13:58:17.814Z,10.90
2017-12-04T14:00:46.013Z,12.33
2017-12-04T14:03:14.385Z,12.87
2017-12-04T14:05:43.500Z,11.60
2017-12-04T14:08:12.656Z,12.03
2017-12-04T14:10:41.189Z,12.40
2017-12-04T14:13:09.577Z,12.50
2017-12-04T14:15:37.942Z,11.50
2017-12-04T14:18:06.096Z,13.00
2017-12-04T14:20:35.043Z,13.00
2017-12-04T14:23:03.384Z,15.87
2017-12-04T14:25:31.736Z,14.03
2017-12-04T14:28:00.977Z,13.43
2017-12-04T14:30:29.345Z,15.93
2017-12-04T14:32:57.708Z,14.20
2017-12-04T14:35:26.927Z,13.17
2017-12-04T14:37:55.275Z,16.37
2017-12-04T14:40:24.622Z,15.07
2017-12-04T14:42:52.965Z,15.57
2017-12-04T14:45:21.325Z,15.47
2017-12-04T14:47:50.104Z,15.67
2017-12-04T14:50:18.128Z,14.80
2017-12-04T14:52:45.815Z,14.93
2017-12-04T14:55:13.549Z,16.47
2017-12-04T14:57:41.240Z,14.73
2017-12-04T15:00:09.256Z,15.90
2017-12-04T15:02:36.946Z,15.60
2017-12-04T15:05:04.634Z,17.50
2017-12-04T15:07:32.347Z,15.07
2017-12-04T15:10:00.376Z,15.17
2017-12-04T15:12:27.904Z,16.37
2017-12-04T15:14:55.768Z,14.53
2017-12-04T15:17:24.050Z,16.33
2017-12-04T15:19:52.069Z,15.50
2017-12-04T15:22:20.338Z,16.97
2017-12-04T15:24:48.804Z,14.40
2017-12-04T15:27:16.492Z,14.00
2017-12-04T15:29:44.210Z,15.43
2017-12-04T15:32:11.949Z,14.30
2017-12-04T15:34:39.709Z,15.40
2017-12-04T15:37:07.389Z,17.90
2017-12-04T15:39:35.095Z,15.80
2017-12-04T15:42:03.544Z,14.20
2017-12-04T15:44:31.232Z,14.80
2017-12-04T15:46:59.741Z,14.67
2017-12-04T15:49:27.496Z,15.63
2017-12-04T15:51:55.250Z,16.57
2017-12-04T15:54:23.417Z,15.63
2017-12-04T15:56:52.542Z,15.73
2017-12-04T15:59:20.232Z,15.23
2017-12-04T16:01:48.000Z,15.03
2017-12-04T16:04:15.759Z,22.70
2017-12-04T16:06:43.459Z,15.37
2017-12-04T16:09:11.162Z,26.43
2017-12-04T16:11:39.206Z,17.50
2017-12-04T16:14:08.352Z,20.83
2017-12-04T16:16:36.712Z,20.47
2017-12-04T16:19:05.069Z,16.70
2017-12-04T16:21:33.088Z,15.50
2017-12-04T16:24:01.561Z,20.07
2017-12-04T16:26:29.706Z,18.90
2017-12-04T16:28:58.057Z,20.60
2017-12-04T16:31:26.852Z,16.77
2017-12-04T16:33:55.067Z,17.97
2017-12-04T16:36:23.079Z,20.20
2017-12-04T16:38:52.036Z,19.30
2017-12-04T16:41:19.971Z,19.40
2017-12-04T16:43:47.851Z,18.37
2017-12-04T16:46:16.014Z,17.47
2017-12-04T16:48:44.382Z,20.57
2017-12-04T16:51:12.667Z,17.80
2017-12-04T16:53:40.688Z,17.03
2017-12-04T16:56:09.054Z,18.60
2017-12-04T16:58:37.103Z,18.07
2017-12-04T17:01:04.817Z,18.83
2017-12-04T17:03:34.003Z,19.57
2017-12-04T17:06:02.221Z,16.47
2017-12-04T17:08:30.578Z,18.73
2017-12-04T17:10:58.959Z,15.90
2017-12-04T17:13:26.978Z,19.33
2017-12-04T17:15:55.335Z,17.00
2017-12-04T17:18:23.692Z,26.30
2017-12-04T17:20:52.047Z,18.80
2017-12-04T17:23:20.833Z,18.20
2017-12-04T17:25:49.986Z,16.47
2017-12-04T17:28:18.355Z,20.90
2017-12-04T17:30:46.725Z,19.07
2017-12-04T17:33:14.792Z,18.37
2017-12-04T17:35:43.148Z,17.17
2017-12-04T17:38:11.500Z,19.67
2017-12-04T17:40:40.284Z,16.00
2017-12-04T17:43:08.346Z,16.07
2017-12-04T17:45:36.692Z,17.70
2017-12-04T17:48:04.732Z,19.37
2017-12-04T17:50:33.100Z,19.17
2017-12-04T17:53:02.021Z,15.80
2017-12-04T17:55:30.470Z,17.13
2017-12-04T17:57:58.888Z,19.23
2017-12-04T18:00:26.613Z,18.30
2017-12-04T18:02:55.726Z,20.20
2017-12-04T18:05:23.625Z,17.03
2017-12-04T18:07:51.348Z,19.97
2017-12-04T18:10:19.070Z,19.43
2017-12-04T18:12:46.772Z,17.93
2017-12-04T18:15:14.490Z,19.30
2017-12-04T18:17:42.178Z,17.57
2017-12-04T18:20:10.653Z,21.57
2017-12-04T18:22:39.508Z,18.33
2017-12-04T18:25:07.240Z,19.70
2017-12-04T18:27:34.939Z,20.27
2017-12-04T18:30:02.708Z,19.07
2017-12-04T18:32:31.102Z,22.93
2017-12-04T18:34:58.838Z,20.07
2017-12-04T18:37:26.552Z,20.03
2017-12-04T18:39:55.010Z,23.87
2017-12-04T18:42:23.396Z,21.87
2017-12-04T18:44:51.867Z,21.00
2017-12-04T18:47:19.688Z,21.63
2017-12-04T18:49:47.435Z,20.87
2017-12-04T18:52:15.141Z,24.90
2017-12-04T18:54:42.838Z,26.60
2017-12-04T18:57:11.643Z,26.30
2017-12-04T18:59:39.352Z,24.40
2017-12-04T19:02:07.043Z,24.87
2017-12-04T19:04:35.496Z,21.00
2017-12-04T19:07:03.236Z,21.93
2017-12-04T19:09:30.917Z,23.43
2017-12-04T19:11:58.614Z,22.53
2017-12-04T19:14:27.392Z,22.13
2017-12-04T19:16:55.200Z,23.67
2017-12-04T19:19:22.921Z,27.60
2017-12-04T19:21:51.406Z,22.87
2017-12-04T19:24:19.925Z,22.40
2017-12-04T19:26:47.629Z,23.60
2017-12-04T19:29:15.708Z,24.20
2017-12-04T19:31:43.752Z,23.23
2017-12-04T19:34:11.802Z,26.10
2017-12-04T19:36:39.477Z,22.73
2017-12-04T19:39:07.179Z,22.63
2017-12-04T19:41:34.675Z,23.47
2017-12-04T19:44:02.522Z,20.03
2017-12-04T19:46:30.776Z,22.43
2017-12-04T19:48:59.081Z,20.10
2017-12-04T19:51:26.800Z,26.90
2017-12-04T19:53:54.485Z,25.60
2017-12-04T19:56:23.323Z,22.10
2017-12-04T19:58:51.353Z,25.77
2017-12-04T20:01:19.833Z,25.33
2017-12-04T20:03:48.617Z,24.40
2017-12-04T20:06:17.766Z,22.97
2017-12-04T20:08:45.544Z,24.27
2017-12-04T20:11:13.404Z,24.73
2017-12-04T20:13:41.171Z,24.10
2017-12-04T20:16:09.905Z,23.40
2017-12-04T20:18:37.736Z,21.90
2017-12-04T20:21:05.624Z,22.77
2017-12-04T20:23:34.154Z,23.23
2017-12-04T20:26:01.860Z,21.80
2017-12-04T20:28:30.744Z,23.30
2017-12-04T20:30:58.475Z,22.00
2017-12-04T20:33:26.522Z,21.30
2017-12-04T20:35:54.197Z,23.80
2017-12-04T20:38:21.894Z,22.50
2017-12-04T20:40:49.644Z,23.67
2017-12-04T20:43:17.398Z,22.80
2017-12-04T20:45:45.107Z,23.40
2017-12-04T20:48:13.552Z,23.70
2017-12-04T20:50:41.307Z,22.63
2017-12-04T20:53:09.361Z,23.17
2017-12-04T20:55:37.073Z,24.17
2017-12-04T20:58:04.905Z,24.03
2017-12-04T21:00:32.632Z,24.90
2017-12-04T21:03:00.404Z,25.63
2017-12-04T21:05:28.233Z,22.97
2017-12-04T21:07:56.859Z,22.73
2017-12-04T21:10:36.435Z,24.03
2017-12-04T21:13:15.966Z,21.77
2017-12-04T21:15:55.589Z,23.27
2017-12-04T21:18:23.365Z,23.90
2017-12-04T21:20:51.044Z,24.20
2017-12-04T21:23:18.794Z,22.57
2017-12-04T21:25:46.568Z,22.97
2017-12-04T21:28:14.290Z,23.53
2017-12-04T21:30:42.025Z,22.10
2017-12-04T21:33:10.489Z,23.73
2017-12-04T21:35:38.198Z,21.83
2017-12-04T21:38:05.925Z,24.57
2017-12-04T21:40:34.413Z,22.60
2017-12-04T21:43:02.866Z,24.00
2017-12-04T21:45:30.993Z,21.90
2017-12-04T21:47:58.679Z,23.60
2017-12-04T21:50:26.424Z,27.20
2017-12-04T21:52:54.118Z,27.07
2017-12-04T21:55:21.808Z,28.33
2017-12-04T21:57:50.600Z,23.63
2017-12-04T22:00:19.401Z,25.57
2017-12-04T22:02:47.468Z,28.33
2017-12-04T22:05:15.519Z,26.90
2017-12-04T22:07:44.349Z,25.40
2017-12-04T22:10:12.054Z,25.90
2017-12-04T22:12:39.761Z,21.40
2017-12-04T22:15:07.479Z,23.93
2017-12-04T22:17:36.006Z,26.10
2017-12-04T22:20:04.032Z,24.87
2017-12-04T22:22:31.721Z,21.90
2017-12-04T22:25:00.177Z,25.83
2017-12-04T22:27:28.656Z,23.10
2017-12-04T22:29:56.356Z,22.60
2017-12-04T22:32:24.373Z,24.53
2017-12-04T22:34:52.089Z,24.23
2017-12-04T22:37:19.779Z,21.60
2017-12-04T22:39:47.458Z,16.47
2017-12-04T22:42:15.161Z,18.63
2017-12-04T22:44:43.612Z,23.50
2017-12-04T22:47:11.637Z,21.27
2017-12-04T22:49:39.346Z,21.97
2017-12-04T22:52:07.041Z,20.17
2017-12-04T22:54:34.540Z,18.63
2017-12-04T22:57:02.269Z,20.90
2017-12-04T22:59:29.764Z,20.17
2017-12-04T23:01:57.780Z,18.40
2017-12-04T23:04:26.586Z,18.40
2017-12-04T23:06:54.081Z,19.43
2017-12-04T23:09:21.925Z,20.00
2017-12-04T23:11:49.437Z,17.60
2017-12-04T23:14:17.277Z,20.20
2017-12-04T23:16:45.028Z,20.20
2017-12-04T23:19:12.593Z,20.50
2017-12-04T23:21:40.083Z,21.90
2017-12-04T23:24:08.341Z,18.47
2017-12-04T23:26:36.180Z,20.37
2017-12-04T23:29:03.888Z,20.07
2017-12-04T23:31:32.352Z,19.87
2017-12-04T23:33:59.866Z,12.47
2017-12-04T23:36:27.734Z,15.27
2017-12-04T23:38:55.419Z,19.40
2017-12-04T23:41:23.125Z,19.60
2017-12-04T23:43:52.231Z,18.83
2017-12-04T23:46:20.593Z,20.07
2017-12-04T23:48:49.383Z,15.53
2017-12-04T23:51:18.312Z,21.90
2017-12-04T23:53:46.672Z,21.90
2017-12-04T23:56:15.031Z,15.57
2017-12-04T23:58:44.175Z,15.10
